Terminal Aerodrome Forecast
Issued by NWS Louisville, KY

Home | Current Version | Previous Version | Text Only | Print | Product List | Glossary On
Versions: 1 2 3 4 5 6 7 8 9 10 11 12 13 14 15 16 17
000
FTUS43 KLMK 201700
TAFSDF
TAF
KSDF 201728Z 2018/2124 18004KT P6SM FEW040 FEW250
     FM210000 VRB03KT P6SM BKN250
     FM211300 22005KT P6SM SCT050 BKN150
     FM212200 24009KT P6SM VCSH BKN040 BKN150=

USA.gov is the U.S. government's official web portal to all federal, state and local government web resources and services.